sensor_id;sensor_type;location;lat;lon;timestamp;P1;durP1;ratioP1;P2;durP2;ratioP2
1344;SDS011;15375;48.540;9.268;2024-01-10T00:01:12;25.73;;;12.30;;
1344;SDS011;15375;48.540;9.268;2024-01-10T00:03:37;23.93;;;13.23;;
1344;SDS011;15375;48.540;9.268;2024-01-10T00:06:02;23.27;;;12.43;;
1344;SDS011;15375;48.540;9.268;2024-01-10T00:08:28;26.90;;;14.20;;
1344;SDS011;15375;48.540;9.268;2024-01-10T00:10:53;21.43;;;14.47;;
1344;SDS011;15375;48.540;9.268;2024-01-10T00:13:19;22.60;;;13.10;;
1344;SDS011;15375;48.540;9.268;2024-01-10T00:15:46;28.55;;;13.05;;
1344;SDS011;15375;48.540;9.268;2024-01-10T00:18:11;23.77;;;13.07;;
1344;SDS011;15375;48.540;9.268;2024-01-10T00:20:37;27.77;;;15.17;;
1344;SDS011;15375;48.540;9.268;2024-01-10T00:23:02;23.03;;;13.83;;
1344;SDS011;15375;48.540;9.268;2024-01-10T00:25:28;30.93;;;14.57;;
1344;SDS011;15375;48.540;9.268;2024-01-10T00:27:54;23.87;;;15.70;;
1344;SDS011;15375;48.540;9.268;2024-01-10T00:30:19;28.60;;;15.60;;
1344;SDS011;15375;48.540;9.268;2024-01-10T00:32:45;24.43;;;15.87;;
1344;SDS011;15375;48.540;9.268;2024-01-10T00:35:10;24.27;;;14.77;;
1344;SDS011;15375;48.540;9.268;2024-01-10T00:37:36;27.80;;;15.60;;
1344;SDS011;15375;48.540;9.268;2024-01-10T00:40:01;36.47;;;16.80;;
1344;SDS011;15375;48.540;9.268;2024-01-10T00:42:27;23.40;;;14.97;;
1344;SDS011;15375;48.540;9.268;2024-01-10T00:44:52;23.90;;;14.73;;
1344;SDS011;15375;48.540;9.268;2024-01-10T00:47:17;27.53;;;14.23;;
1344;SDS011;15375;48.540;9.268;2024-01-10T00:49:43;26.90;;;15.23;;
1344;SDS011;15375;48.540;9.268;2024-01-10T00:52:08;22.80;;;13.80;;
1344;SDS011;15375;48.540;9.268;2024-01-10T00:54:34;27.23;;;15.60;;
1344;SDS011;15375;48.540;9.268;2024-01-10T00:56:59;32.90;;;15.90;;
1344;SDS011;15375;48.540;9.268;2024-01-10T00:59:24;25.77;;;14.90;;
1344;SDS011;15375;48.540;9.268;2024-01-10T01:01:50;23.40;;;13.87;;
1344;SDS011;15375;48.540;9.268;2024-01-10T01:04:15;27.30;;;15.27;;
1344;SDS011;15375;48.540;9.268;2024-01-10T01:06:40;25.63;;;15.73;;
1344;SDS011;15375;48.540;9.268;2024-01-10T01:09:06;27.63;;;15.43;;
1344;SDS011;15375;48.540;9.268;2024-01-10T01:11:31;31.20;;;16.40;;
1344;SDS011;15375;48.540;9.268;2024-01-10T01:13:56;27.70;;;14.67;;
1344;SDS011;15375;48.540;9.268;2024-01-10T01:16:22;29.10;;;16.43;;
1344;SDS011;15375;48.540;9.268;2024-01-10T01:18:47;29.97;;;14.90;;
1344;SDS011;15375;48.540;9.268;2024-01-10T01:21:12;27.43;;;15.67;;
1344;SDS011;15375;48.540;9.268;2024-01-10T01:23:38;27.60;;;15.57;;
1344;SDS011;15375;48.540;9.268;2024-01-10T01:26:03;27.37;;;15.00;;
1344;SDS011;15375;48.540;9.268;2024-01-10T01:28:29;25.90;;;14.70;;
1344;SDS011;15375;48.540;9.268;2024-01-10T01:30:54;25.70;;;14.63;;
1344;SDS011;15375;48.540;9.268;2024-01-10T01:33:20;30.97;;;15.27;;
1344;SDS011;15375;48.540;9.268;2024-01-10T01:35:45;30.70;;;16.50;;
1344;SDS011;15375;48.540;9.268;2024-01-10T01:38:11;23.73;;;14.87;;
1344;SDS011;15375;48.540;9.268;2024-01-10T01:40:36;23.40;;;14.37;;
1344;SDS011;15375;48.540;9.268;2024-01-10T01:43:02;28.03;;;15.87;;
1344;SDS011;15375;48.540;9.268;2024-01-10T01:45:40;34.22;;;17.35;;
1344;SDS011;15375;48.540;9.268;2024-01-10T01:48:05;26.23;;;15.63;;
1344;SDS011;15375;48.540;9.268;2024-01-10T01:50:31;34.92;;;17.23;;
1344;SDS011;15375;48.540;9.268;2024-01-10T01:52:57;31.17;;;17.13;;
1344;SDS011;15375;48.540;9.268;2024-01-10T01:55:22;28.27;;;15.20;;
1344;SDS011;15375;48.540;9.268;2024-01-10T01:57:49;30.15;;;16.63;;
1344;SDS011;15375;48.540;9.268;2024-01-10T02:00:14;29.13;;;16.10;;
1344;SDS011;15375;48.540;9.268;2024-01-10T02:02:40;27.93;;;16.17;;
1344;SDS011;15375;48.540;9.268;2024-01-10T02:05:08;28.35;;;16.25;;
1344;SDS011;15375;48.540;9.268;2024-01-10T02:07:34;22.77;;;15.00;;
1344;SDS011;15375;48.540;9.268;2024-01-10T02:09:59;25.30;;;14.03;;
1344;SDS011;15375;48.540;9.268;2024-01-10T02:12:25;28.67;;;15.27;;
1344;SDS011;15375;48.540;9.268;2024-01-10T02:14:50;27.23;;;18.23;;
1344;SDS011;15375;48.540;9.268;2024-01-10T02:17:16;29.02;;;15.40;;
1344;SDS011;15375;48.540;9.268;2024-01-10T02:19:41;33.90;;;17.70;;
1344;SDS011;15375;48.540;9.268;2024-01-10T02:22:07;30.17;;;16.47;;
1344;SDS011;15375;48.540;9.268;2024-01-10T02:24:32;24.73;;;15.20;;
1344;SDS011;15375;48.540;9.268;2024-01-10T02:26:58;29.00;;;17.50;;
1344;SDS011;15375;48.540;9.268;2024-01-10T02:29:23;30.03;;;16.13;;
1344;SDS011;15375;48.540;9.268;2024-01-10T02:31:59;26.50;;;16.48;;
1344;SDS011;15375;48.540;9.268;2024-01-10T02:34:45;30.40;;;16.10;;
1344;SDS011;15375;48.540;9.268;2024-01-10T02:37:10;33.37;;;17.20;;
1344;SDS011;15375;48.540;9.268;2024-01-10T02:39:38;38.10;;;18.55;;
1344;SDS011;15375;48.540;9.268;2024-01-10T02:42:07;36.85;;;17.13;;
1344;SDS011;15375;48.540;9.268;2024-01-10T02:44:32;33.57;;;16.93;;
1344;SDS011;15375;48.540;9.268;2024-01-10T02:46:57;28.77;;;16.50;;
1344;SDS011;15375;48.540;9.268;2024-01-10T02:49:23;28.33;;;16.13;;
1344;SDS011;15375;48.540;9.268;2024-01-10T02:51:48;27.07;;;16.57;;
1344;SDS011;15375;48.540;9.268;2024-01-10T02:54:14;29.47;;;15.70;;
1344;SDS011;15375;48.540;9.268;2024-01-10T02:56:39;28.87;;;16.63;;
1344;SDS011;15375;48.540;9.268;2024-01-10T02:59:04;24.60;;;14.97;;
1344;SDS011;15375;48.540;9.268;2024-01-10T03:01:30;28.33;;;16.97;;
1344;SDS011;15375;48.540;9.268;2024-01-10T03:03:55;30.30;;;16.40;;
1344;SDS011;15375;48.540;9.268;2024-01-10T03:06:20;26.97;;;15.27;;
1344;SDS011;15375;48.540;9.268;2024-01-10T03:08:49;30.83;;;15.97;;
1344;SDS011;15375;48.540;9.268;2024-01-10T03:11:15;27.73;;;17.42;;
1344;SDS011;15375;48.540;9.268;2024-01-10T03:13:44;27.73;;;15.63;;
1344;SDS011;15375;48.540;9.268;2024-01-10T03:16:11;29.40;;;16.05;;
1344;SDS011;15375;48.540;9.268;2024-01-10T03:18:36;31.97;;;16.50;;
1344;SDS011;15375;48.540;9.268;2024-01-10T03:21:02;28.70;;;15.13;;
1344;SDS011;15375;48.540;9.268;2024-01-10T03:23:27;27.47;;;15.63;;
1344;SDS011;15375;48.540;9.268;2024-01-10T03:25:53;27.37;;;16.20;;
1344;SDS011;15375;48.540;9.268;2024-01-10T03:28:18;34.37;;;16.73;;
1344;SDS011;15375;48.540;9.268;2024-01-10T03:30:44;24.77;;;16.87;;
1344;SDS011;15375;48.540;9.268;2024-01-10T03:33:09;30.90;;;17.77;;
1344;SDS011;15375;48.540;9.268;2024-01-10T03:35:35;25.60;;;16.33;;
1344;SDS011;15375;48.540;9.268;2024-01-10T03:38:00;25.53;;;16.57;;
1344;SDS011;15375;48.540;9.268;2024-01-10T03:40:26;26.63;;;15.80;;
1344;SDS011;15375;48.540;9.268;2024-01-10T03:42:51;35.50;;;17.23;;
1344;SDS011;15375;48.540;9.268;2024-01-10T03:45:17;24.47;;;17.60;;
1344;SDS011;15375;48.540;9.268;2024-01-10T03:47:45;29.33;;;18.50;;
1344;SDS011;15375;48.540;9.268;2024-01-10T03:50:15;31.15;;;17.42;;
1344;SDS011;15375;48.540;9.268;2024-01-10T03:52:41;35.28;;;19.52;;
1344;SDS011;15375;48.540;9.268;2024-01-10T03:55:07;28.80;;;17.73;;
1344;SDS011;15375;48.540;9.268;2024-01-10T03:57:33;35.80;;;17.97;;
1344;SDS011;15375;48.540;9.268;2024-01-10T03:59:58;33.33;;;18.20;;
1344;SDS011;15375;48.540;9.268;2024-01-10T04:02:23;33.70;;;18.27;;
1344;SDS011;15375;48.540;9.268;2024-01-10T04:04:49;30.50;;;17.60;;
1344;SDS011;15375;48.540;9.268;2024-01-10T04:07:15;27.27;;;17.65;;
1344;SDS011;15375;48.540;9.268;2024-01-10T04:09:40;35.30;;;18.50;;
1344;SDS011;15375;48.540;9.268;2024-01-10T04:12:05;31.97;;;18.53;;
1344;SDS011;15375;48.540;9.268;2024-01-10T04:14:31;31.47;;;18.57;;
1344;SDS011;15375;48.540;9.268;2024-01-10T04:16:56;30.30;;;17.10;;
1344;SDS011;15375;48.540;9.268;2024-01-10T04:19:22;27.97;;;17.27;;
1344;SDS011;15375;48.540;9.268;2024-01-10T04:21:47;28.70;;;17.80;;
1344;SDS011;15375;48.540;9.268;2024-01-10T04:24:12;30.73;;;16.00;;
1344;SDS011;15375;48.540;9.268;2024-01-10T04:26:38;33.00;;;18.37;;
1344;SDS011;15375;48.540;9.268;2024-01-10T04:29:03;30.70;;;19.03;;
1344;SDS011;15375;48.540;9.268;2024-01-10T04:31:28;31.73;;;17.87;;
1344;SDS011;15375;48.540;9.268;2024-01-10T04:33:54;34.87;;;18.67;;
1344;SDS011;15375;48.540;9.268;2024-01-10T04:36:20;31.97;;;18.50;;
1344;SDS011;15375;48.540;9.268;2024-01-10T04:38:45;32.23;;;17.80;;
1344;SDS011;15375;48.540;9.268;2024-01-10T04:41:13;31.43;;;17.07;;
1344;SDS011;15375;48.540;9.268;2024-01-10T04:43:39;35.08;;;18.67;;
1344;SDS011;15375;48.540;9.268;2024-01-10T04:46:04;28.90;;;16.37;;
1344;SDS011;15375;48.540;9.268;2024-01-10T04:48:29;37.50;;;19.60;;
1344;SDS011;15375;48.540;9.268;2024-01-10T04:50:55;36.17;;;19.47;;
1344;SDS011;15375;48.540;9.268;2024-01-10T04:53:20;29.10;;;17.47;;
1344;SDS011;15375;48.540;9.268;2024-01-10T04:55:45;28.17;;;17.60;;
1344;SDS011;15375;48.540;9.268;2024-01-10T04:58:11;28.47;;;16.97;;
1344;SDS011;15375;48.540;9.268;2024-01-10T05:00:36;35.27;;;17.50;;
1344;SDS011;15375;48.540;9.268;2024-01-10T05:03:02;30.10;;;17.90;;
1344;SDS011;15375;48.540;9.268;2024-01-10T05:05:27;34.07;;;17.97;;
1344;SDS011;15375;48.540;9.268;2024-01-10T05:07:52;32.80;;;18.63;;
1344;SDS011;15375;48.540;9.268;2024-01-10T05:10:18;34.90;;;18.67;;
1344;SDS011;15375;48.540;9.268;2024-01-10T05:12:43;28.43;;;18.63;;
1344;SDS011;15375;48.540;9.268;2024-01-10T05:15:12;30.50;;;18.33;;
1344;SDS011;15375;48.540;9.268;2024-01-10T05:17:40;27.77;;;16.50;;
1344;SDS011;15375;48.540;9.268;2024-01-10T05:20:06;29.53;;;16.13;;
1344;SDS011;15375;48.540;9.268;2024-01-10T05:22:32;32.90;;;18.70;;
1344;SDS011;15375;48.540;9.268;2024-01-10T05:24:57;32.00;;;16.10;;
1344;SDS011;15375;48.540;9.268;2024-01-10T05:27:22;34.10;;;19.03;;
1344;SDS011;15375;48.540;9.268;2024-01-10T05:29:48;33.90;;;17.47;;
1344;SDS011;15375;48.540;9.268;2024-01-10T05:32:13;38.43;;;17.60;;
1344;SDS011;15375;48.540;9.268;2024-01-10T05:34:39;33.80;;;18.10;;
1344;SDS011;15375;48.540;9.268;2024-01-10T05:37:04;30.33;;;18.10;;
1344;SDS011;15375;48.540;9.268;2024-01-10T05:39:29;33.73;;;18.10;;
1344;SDS011;15375;48.540;9.268;2024-01-10T05:41:55;34.33;;;17.33;;
1344;SDS011;15375;48.540;9.268;2024-01-10T05:44:20;34.13;;;19.03;;
1344;SDS011;15375;48.540;9.268;2024-01-10T05:46:46;32.80;;;18.50;;
1344;SDS011;15375;48.540;9.268;2024-01-10T05:49:12;30.15;;;17.20;;
1344;SDS011;15375;48.540;9.268;2024-01-10T05:51:38;34.10;;;19.10;;
1344;SDS011;15375;48.540;9.268;2024-01-10T05:54:03;32.20;;;18.87;;
1344;SDS011;15375;48.540;9.268;2024-01-10T05:56:29;33.90;;;20.00;;
1344;SDS011;15375;48.540;9.268;2024-01-10T05:58:54;27.77;;;17.63;;
1344;SDS011;15375;48.540;9.268;2024-01-10T06:01:20;37.60;;;20.40;;
1344;SDS011;15375;48.540;9.268;2024-01-10T06:03:45;29.40;;;18.07;;
1344;SDS011;15375;48.540;9.268;2024-01-10T06:06:11;31.50;;;17.57;;
1344;SDS011;15375;48.540;9.268;2024-01-10T06:08:36;31.17;;;18.70;;
1344;SDS011;15375;48.540;9.268;2024-01-10T06:11:04;30.98;;;18.10;;
1344;SDS011;15375;48.540;9.268;2024-01-10T06:13:33;36.45;;;18.83;;
1344;SDS011;15375;48.540;9.268;2024-01-10T06:15:59;30.67;;;18.93;;
1344;SDS011;15375;48.540;9.268;2024-01-10T06:18:25;33.20;;;18.80;;
1344;SDS011;15375;48.540;9.268;2024-01-10T06:20:50;32.23;;;17.80;;
1344;SDS011;15375;48.540;9.268;2024-01-10T06:23:16;32.93;;;17.37;;
1344;SDS011;15375;48.540;9.268;2024-01-10T06:25:42;27.83;;;17.13;;
1344;SDS011;15375;48.540;9.268;2024-01-10T06:28:07;32.97;;;19.13;;
1344;SDS011;15375;48.540;9.268;2024-01-10T06:30:33;33.33;;;18.20;;
1344;SDS011;15375;48.540;9.268;2024-01-10T06:33:00;32.28;;;17.88;;
1344;SDS011;15375;48.540;9.268;2024-01-10T06:35:25;30.97;;;17.70;;
1344;SDS011;15375;48.540;9.268;2024-01-10T06:37:51;29.67;;;17.77;;
1344;SDS011;15375;48.540;9.268;2024-01-10T06:40:16;38.93;;;19.10;;
1344;SDS011;15375;48.540;9.268;2024-01-10T06:42:41;31.77;;;19.57;;
1344;SDS011;15375;48.540;9.268;2024-01-10T06:45:07;29.47;;;19.27;;
1344;SDS011;15375;48.540;9.268;2024-01-10T06:47:33;42.22;;;23.33;;
1344;SDS011;15375;48.540;9.268;2024-01-10T06:49:59;42.87;;;26.47;;
1344;SDS011;15375;48.540;9.268;2024-01-10T06:52:24;46.87;;;23.40;;
1344;SDS011;15375;48.540;9.268;2024-01-10T06:54:50;41.83;;;21.07;;
1344;SDS011;15375;48.540;9.268;2024-01-10T06:57:15;36.20;;;18.80;;
1344;SDS011;15375;48.540;9.268;2024-01-10T06:59:40;33.27;;;17.07;;
1344;SDS011;15375;48.540;9.268;2024-01-10T07:02:06;31.00;;;17.90;;
1344;SDS011;15375;48.540;9.268;2024-01-10T07:04:31;32.93;;;18.53;;
1344;SDS011;15375;48.540;9.268;2024-01-10T07:06:57;35.87;;;18.83;;
1344;SDS011;15375;48.540;9.268;2024-01-10T07:09:22;28.67;;;17.93;;
1344;SDS011;15375;48.540;9.268;2024-01-10T07:11:48;35.97;;;18.73;;
1344;SDS011;15375;48.540;9.268;2024-01-10T07:14:14;28.25;;;18.27;;
1344;SDS011;15375;48.540;9.268;2024-01-10T07:16:40;34.10;;;18.38;;
1344;SDS011;15375;48.540;9.268;2024-01-10T07:19:08;27.75;;;17.25;;
1344;SDS011;15375;48.540;9.268;2024-01-10T07:21:34;39.30;;;20.73;;
1344;SDS011;15375;48.540;9.268;2024-01-10T07:23:59;27.10;;;16.37;;
1344;SDS011;15375;48.540;9.268;2024-01-10T07:26:25;36.10;;;18.43;;
1344;SDS011;15375;48.540;9.268;2024-01-10T07:28:52;37.50;;;17.50;;
1344;SDS011;15375;48.540;9.268;2024-01-10T07:31:18;22.17;;;14.07;;
1344;SDS011;15375;48.540;9.268;2024-01-10T07:33:43;28.10;;;18.30;;
1344;SDS011;15375;48.540;9.268;2024-01-10T07:36:08;32.70;;;18.70;;
1344;SDS011;15375;48.540;9.268;2024-01-10T07:38:34;32.60;;;17.77;;
1344;SDS011;15375;48.540;9.268;2024-01-10T07:40:59;33.20;;;16.60;;
1344;SDS011;15375;48.540;9.268;2024-01-10T07:43:25;29.60;;;17.93;;
1344;SDS011;15375;48.540;9.268;2024-01-10T07:45:52;28.65;;;15.73;;
1344;SDS011;15375;48.540;9.268;2024-01-10T07:48:18;34.60;;;18.92;;
1344;SDS011;15375;48.540;9.268;2024-01-10T07:50:43;22.17;;;16.40;;
1344;SDS011;15375;48.540;9.268;2024-01-10T07:53:09;24.08;;;14.65;;
1344;SDS011;15375;48.540;9.268;2024-01-10T07:55:35;39.80;;;17.13;;
1344;SDS011;15375;48.540;9.268;2024-01-10T07:58:00;31.93;;;18.27;;
1344;SDS011;15375;48.540;9.268;2024-01-10T08:00:26;25.10;;;16.17;;
1344;SDS011;15375;48.540;9.268;2024-01-10T08:02:51;34.80;;;18.17;;
1344;SDS011;15375;48.540;9.268;2024-01-10T08:05:17;33.57;;;18.57;;
1344;SDS011;15375;48.540;9.268;2024-01-10T08:07:42;37.70;;;18.50;;
1344;SDS011;15375;48.540;9.268;2024-01-10T08:10:08;40.30;;;18.70;;
1344;SDS011;15375;48.540;9.268;2024-01-10T08:12:35;31.63;;;19.75;;
1344;SDS011;15375;48.540;9.268;2024-01-10T08:15:01;32.35;;;18.73;;
1344;SDS011;15375;48.540;9.268;2024-01-10T08:17:27;32.83;;;19.30;;
1344;SDS011;15375;48.540;9.268;2024-01-10T08:19:59;27.60;;;18.58;;
1344;SDS011;15375;48.540;9.268;2024-01-10T08:22:31;36.70;;;19.02;;
1344;SDS011;15375;48.540;9.268;2024-01-10T08:24:56;36.77;;;19.37;;
1344;SDS011;15375;48.540;9.268;2024-01-10T08:27:22;29.03;;;18.97;;
1344;SDS011;15375;48.540;9.268;2024-01-10T08:29:48;33.23;;;20.77;;
1344;SDS011;15375;48.540;9.268;2024-01-10T08:32:13;29.03;;;18.93;;
1344;SDS011;15375;48.540;9.268;2024-01-10T08:34:40;33.10;;;19.02;;
1344;SDS011;15375;48.540;9.268;2024-01-10T08:37:05;30.17;;;19.73;;
1344;SDS011;15375;48.540;9.268;2024-01-10T08:39:30;31.40;;;20.53;;
1344;SDS011;15375;48.540;9.268;2024-01-10T08:41:56;32.60;;;19.90;;
1344;SDS011;15375;48.540;9.268;2024-01-10T08:44:22;35.03;;;20.67;;
1344;SDS011;15375;48.540;9.268;2024-01-10T08:46:48;34.03;;;20.10;;
1344;SDS011;15375;48.540;9.268;2024-01-10T08:49:16;37.58;;;20.00;;
1344;SDS011;15375;48.540;9.268;2024-01-10T08:51:41;26.63;;;19.40;;
1344;SDS011;15375;48.540;9.268;2024-01-10T08:54:08;44.58;;;28.77;;
1344;SDS011;15375;48.540;9.268;2024-01-10T08:56:34;44.47;;;23.53;;
1344;SDS011;15375;48.540;9.268;2024-01-10T08:58:59;40.93;;;21.00;;
1344;SDS011;15375;48.540;9.268;2024-01-10T09:01:26;33.00;;;20.30;;
1344;SDS011;15375;48.540;9.268;2024-01-10T09:03:54;32.78;;;19.50;;
1344;SDS011;15375;48.540;9.268;2024-01-10T09:06:20;35.83;;;21.90;;
1344;SDS011;15375;48.540;9.268;2024-01-10T09:08:48;37.78;;;21.95;;
1344;SDS011;15375;48.540;9.268;2024-01-10T09:11:14;32.95;;;19.83;;
1344;SDS011;15375;48.540;9.268;2024-01-10T09:13:40;35.30;;;21.53;;
1344;SDS011;15375;48.540;9.268;2024-01-10T09:16:05;31.83;;;20.40;;
1344;SDS011;15375;48.540;9.268;2024-01-10T09:18:31;28.13;;;17.90;;
1344;SDS011;15375;48.540;9.268;2024-01-10T09:20:56;34.93;;;19.17;;
1344;SDS011;15375;48.540;9.268;2024-01-10T09:23:21;33.07;;;20.27;;
1344;SDS011;15375;48.540;9.268;2024-01-10T09:25:47;34.23;;;20.40;;
1344;SDS011;15375;48.540;9.268;2024-01-10T09:28:12;33.00;;;20.57;;
1344;SDS011;15375;48.540;9.268;2024-01-10T09:30:38;32.23;;;20.03;;
1344;SDS011;15375;48.540;9.268;2024-01-10T09:33:04;35.57;;;21.70;;
1344;SDS011;15375;48.540;9.268;2024-01-10T09:35:29;34.33;;;20.80;;
1344;SDS011;15375;48.540;9.268;2024-01-10T09:37:54;33.60;;;20.13;;
1344;SDS011;15375;48.540;9.268;2024-01-10T09:40:20;32.90;;;20.43;;
1344;SDS011;15375;48.540;9.268;2024-01-10T09:42:52;32.63;;;19.80;;
1344;SDS011;15375;48.540;9.268;2024-01-10T09:45:19;26.27;;;18.23;;
1344;SDS011;15375;48.540;9.268;2024-01-10T09:47:48;42.90;;;21.90;;
1344;SDS011;15375;48.540;9.268;2024-01-10T09:50:14;34.28;;;22.17;;
1344;SDS011;15375;48.540;9.268;2024-01-10T09:52:48;32.88;;;20.23;;
1344;SDS011;15375;48.540;9.268;2024-01-10T09:55:17;34.85;;;20.60;;
1344;SDS011;15375;48.540;9.268;2024-01-10T09:57:44;36.90;;;24.08;;
1344;SDS011;15375;48.540;9.268;2024-01-10T10:00:10;33.70;;;21.23;;
1344;SDS011;15375;48.540;9.268;2024-01-10T10:02:36;32.97;;;20.52;;
1344;SDS011;15375;48.540;9.268;2024-01-10T10:05:05;34.53;;;21.52;;
1344;SDS011;15375;48.540;9.268;2024-01-10T10:07:50;36.70;;;22.65;;
1344;SDS011;15375;48.540;9.268;2024-01-10T10:10:18;33.45;;;19.27;;
1344;SDS011;15375;48.540;9.268;2024-01-10T10:12:44;34.60;;;22.17;;
1344;SDS011;15375;48.540;9.268;2024-01-10T10:17:41;38.67;;;24.60;;
1344;SDS011;15375;48.540;9.268;2024-01-10T10:20:13;35.10;;;22.80;;
1344;SDS011;15375;48.540;9.268;2024-01-10T10:22:39;35.33;;;20.97;;
1344;SDS011;15375;48.540;9.268;2024-01-10T10:25:07;36.57;;;21.57;;
1344;SDS011;15375;48.540;9.268;2024-01-10T10:27:33;33.33;;;21.57;;
1344;SDS011;15375;48.540;9.268;2024-01-10T10:30:01;33.57;;;20.90;;
1344;SDS011;15375;48.540;9.268;2024-01-10T10:32:26;44.17;;;25.80;;
1344;SDS011;15375;48.540;9.268;2024-01-10T10:34:52;28.33;;;20.90;;
1344;SDS011;15375;48.540;9.268;2024-01-10T10:37:17;44.23;;;21.17;;
1344;SDS011;15375;48.540;9.268;2024-01-10T10:39:43;35.87;;;21.10;;
1344;SDS011;15375;48.540;9.268;2024-01-10T10:42:08;34.23;;;21.47;;
1344;SDS011;15375;48.540;9.268;2024-01-10T10:44:35;37.03;;;23.47;;
1344;SDS011;15375;48.540;9.268;2024-01-10T10:47:04;34.63;;;22.00;;
1344;SDS011;15375;48.540;9.268;2024-01-10T10:49:34;36.00;;;20.70;;
1344;SDS011;15375;48.540;9.268;2024-01-10T10:52:00;32.20;;;20.50;;
1344;SDS011;15375;48.540;9.268;2024-01-10T10:54:28;36.83;;;21.20;;
1344;SDS011;15375;48.540;9.268;2024-01-10T10:56:57;38.97;;;22.70;;
1344;SDS011;15375;48.540;9.268;2024-01-10T10:59:25;30.80;;;19.83;;
1344;SDS011;15375;48.540;9.268;2024-01-10T11:01:53;28.20;;;18.73;;
1344;SDS011;15375;48.540;9.268;2024-01-10T11:04:20;27.40;;;19.40;;
1344;SDS011;15375;48.540;9.268;2024-01-10T11:06:46;29.20;;;18.33;;
1344;SDS011;15375;48.540;9.268;2024-01-10T11:09:11;33.70;;;20.67;;
1344;SDS011;15375;48.540;9.268;2024-01-10T11:11:56;30.97;;;20.70;;
1344;SDS011;15375;48.540;9.268;2024-01-10T11:25:42;32.90;;;21.00;;
1344;SDS011;15375;48.540;9.268;2024-01-10T11:28:07;35.53;;;21.23;;
1344;SDS011;15375;48.540;9.268;2024-01-10T11:30:36;31.00;;;21.47;;
1344;SDS011;15375;48.540;9.268;2024-01-10T11:36:05;30.53;;;20.47;;
1344;SDS011;15375;48.540;9.268;2024-01-10T11:49:08;30.90;;;19.43;;
1344;SDS011;15375;48.540;9.268;2024-01-10T11:51:41;35.07;;;21.00;;
1344;SDS011;15375;48.540;9.268;2024-01-10T11:54:07;30.37;;;20.23;;
1344;SDS011;15375;48.540;9.268;2024-01-10T11:56:40;34.20;;;20.17;;
1344;SDS011;15375;48.540;9.268;2024-01-10T11:59:08;31.03;;;20.00;;
1344;SDS011;15375;48.540;9.268;2024-01-10T12:01:37;36.40;;;21.77;;
1344;SDS011;15375;48.540;9.268;2024-01-10T12:04:03;32.03;;;21.50;;
1344;SDS011;15375;48.540;9.268;2024-01-10T12:06:30;29.27;;;21.67;;
1344;SDS011;15375;48.540;9.268;2024-01-10T12:08:56;32.97;;;21.03;;
1344;SDS011;15375;48.540;9.268;2024-01-10T12:11:22;37.40;;;22.77;;
1344;SDS011;15375;48.540;9.268;2024-01-10T12:13:48;37.60;;;21.63;;
1344;SDS011;15375;48.540;9.268;2024-01-10T12:16:14;30.67;;;21.43;;
1344;SDS011;15375;48.540;9.268;2024-01-10T12:18:40;34.00;;;20.40;;
1344;SDS011;15375;48.540;9.268;2024-01-10T12:21:06;33.47;;;20.27;;
1344;SDS011;15375;48.540;9.268;2024-01-10T12:23:34;28.87;;;21.10;;
1344;SDS011;15375;48.540;9.268;2024-01-10T12:26:03;36.80;;;21.80;;
1344;SDS011;15375;48.540;9.268;2024-01-10T12:28:34;34.20;;;22.23;;
1344;SDS011;15375;48.540;9.268;2024-01-10T12:31:01;36.57;;;23.73;;
1344;SDS011;15375;48.540;9.268;2024-01-10T12:33:27;32.00;;;21.40;;
1344;SDS011;15375;48.540;9.268;2024-01-10T12:36:02;34.97;;;22.77;;
1344;SDS011;15375;48.540;9.268;2024-01-10T12:38:39;32.23;;;20.70;;
1344;SDS011;15375;48.540;9.268;2024-01-10T12:41:05;33.97;;;22.57;;
1344;SDS011;15375;48.540;9.268;2024-01-10T12:43:34;37.53;;;22.90;;
1344;SDS011;15375;48.540;9.268;2024-01-10T12:46:09;38.93;;;25.53;;
1344;SDS011;15375;48.540;9.268;2024-01-10T12:48:36;35.53;;;23.33;;
1344;SDS011;15375;48.540;9.268;2024-01-10T12:51:09;31.63;;;21.37;;
1344;SDS011;15375;48.540;9.268;2024-01-10T12:53:38;34.30;;;22.43;;
1344;SDS011;15375;48.540;9.268;2024-01-10T12:56:06;37.90;;;24.20;;
1344;SDS011;15375;48.540;9.268;2024-01-10T12:58:33;35.03;;;21.67;;
1344;SDS011;15375;48.540;9.268;2024-01-10T13:01:00;36.40;;;23.10;;
1344;SDS011;15375;48.540;9.268;2024-01-10T13:03:26;33.93;;;21.40;;
1344;SDS011;15375;48.540;9.268;2024-01-10T13:05:52;37.97;;;22.30;;
1344;SDS011;15375;48.540;9.268;2024-01-10T13:08:17;33.93;;;21.20;;
1344;SDS011;15375;48.540;9.268;2024-01-10T13:10:46;36.07;;;21.60;;
1344;SDS011;15375;48.540;9.268;2024-01-10T13:13:12;32.30;;;19.70;;
1344;SDS011;15375;48.540;9.268;2024-01-10T13:15:38;36.20;;;22.30;;
1344;SDS011;15375;48.540;9.268;2024-01-10T13:18:04;35.00;;;22.30;;
1344;SDS011;15375;48.540;9.268;2024-01-10T13:20:29;30.53;;;19.80;;
1344;SDS011;15375;48.540;9.268;2024-01-10T13:22:55;34.30;;;21.70;;
1344;SDS011;15375;48.540;9.268;2024-01-10T13:25:20;28.97;;;20.40;;
1344;SDS011;15375;48.540;9.268;2024-01-10T13:27:49;35.43;;;23.47;;
1344;SDS011;15375;48.540;9.268;2024-01-10T13:30:18;37.27;;;22.37;;
1344;SDS011;15375;48.540;9.268;2024-01-10T13:32:44;39.70;;;25.33;;
1344;SDS011;15375;48.540;9.268;2024-01-10T13:35:11;35.27;;;23.23;;
1344;SDS011;15375;48.540;9.268;2024-01-10T13:37:38;44.43;;;25.13;;
1344;SDS011;15375;48.540;9.268;2024-01-10T13:40:04;34.33;;;24.30;;
1344;SDS011;15375;48.540;9.268;2024-01-10T13:42:31;38.50;;;23.73;;
1344;SDS011;15375;48.540;9.268;2024-01-10T13:44:57;32.50;;;21.80;;
1344;SDS011;15375;48.540;9.268;2024-01-10T13:47:23;36.97;;;23.43;;
1344;SDS011;15375;48.540;9.268;2024-01-10T13:49:48;38.93;;;23.00;;
1344;SDS011;15375;48.540;9.268;2024-01-10T13:52:14;36.03;;;23.57;;
1344;SDS011;15375;48.540;9.268;2024-01-10T13:54:39;40.43;;;24.43;;
1344;SDS011;15375;48.540;9.268;2024-01-10T13:57:04;36.27;;;23.27;;
1344;SDS011;15375;48.540;9.268;2024-01-10T13:59:30;31.47;;;19.90;;
1344;SDS011;15375;48.540;9.268;2024-01-10T14:01:56;34.77;;;21.97;;
1344;SDS011;15375;48.540;9.268;2024-01-10T14:04:22;41.00;;;24.10;;
1344;SDS011;15375;48.540;9.268;2024-01-10T14:06:47;38.00;;;21.27;;
1344;SDS011;15375;48.540;9.268;2024-01-10T14:09:13;36.63;;;24.23;;
1344;SDS011;15375;48.540;9.268;2024-01-10T14:11:39;36.97;;;21.77;;
1344;SDS011;15375;48.540;9.268;2024-01-10T14:14:05;40.87;;;22.80;;
1344;SDS011;15375;48.540;9.268;2024-01-10T14:16:30;37.60;;;23.60;;
1344;SDS011;15375;48.540;9.268;2024-01-10T14:18:55;35.23;;;22.87;;
1344;SDS011;15375;48.540;9.268;2024-01-10T14:21:21;33.37;;;22.47;;
1344;SDS011;15375;48.540;9.268;2024-01-10T14:23:47;37.20;;;21.33;;
1344;SDS011;15375;48.540;9.268;2024-01-10T14:26:14;33.63;;;22.10;;
1344;SDS011;15375;48.540;9.268;2024-01-10T14:28:40;33.10;;;23.53;;
1344;SDS011;15375;48.540;9.268;2024-01-10T14:31:05;44.40;;;24.70;;
1344;SDS011;15375;48.540;9.268;2024-01-10T14:33:31;39.10;;;22.50;;
1344;SDS011;15375;48.540;9.268;2024-01-10T14:36:00;33.20;;;21.27;;
1344;SDS011;15375;48.540;9.268;2024-01-10T14:38:25;40.23;;;22.90;;
1344;SDS011;15375;48.540;9.268;2024-01-10T14:40:50;38.67;;;23.17;;
1344;SDS011;15375;48.540;9.268;2024-01-10T14:43:16;39.40;;;25.23;;
1344;SDS011;15375;48.540;9.268;2024-01-10T14:45:42;39.07;;;23.33;;
1344;SDS011;15375;48.540;9.268;2024-01-10T14:48:08;36.77;;;24.13;;
1344;SDS011;15375;48.540;9.268;2024-01-10T14:50:34;35.93;;;21.77;;
1344;SDS011;15375;48.540;9.268;2024-01-10T14:52:59;38.87;;;24.10;;
1344;SDS011;15375;48.540;9.268;2024-01-10T14:55:24;31.73;;;19.70;;